createdAt,value
2022-12-24T00:01:03.347Z,2.38
2022-12-24T00:03:30.227Z,2.55
2022-12-24T00:05:56.918Z,2.22
2022-12-24T00:08:23.668Z,2.25
2022-12-24T00:10:54.352Z,2.95
2022-12-24T00:13:21.434Z,2.88
2022-12-24T00:15:49.136Z,2.25
2022-12-24T00:18:15.930Z,2.33
2022-12-24T00:20:42.595Z,2.42
2022-12-24T00:23:09.270Z,2.40
2022-12-24T00:25:35.917Z,2.03
2022-12-24T00:28:02.573Z,2.13
2022-12-24T00:30:29.460Z,2.45
2022-12-24T00:32:56.322Z,2.15
2022-12-24T00:35:23.568Z,2.30
2022-12-24T00:37:50.838Z,2.17
2022-12-24T00:40:18.857Z,2.35
2022-12-24T00:42:45.477Z,2.40
2022-12-24T00:45:13.029Z,2.60
2022-12-24T00:47:39.670Z,2.75
2022-12-24T00:50:07.255Z,2.13
2022-12-24T00:52:34.287Z,2.83
2022-12-24T00:55:00.927Z,2.88
2022-12-24T00:57:27.599Z,2.22
2022-12-24T00:59:54.191Z,2.85
2022-12-24T01:02:21.195Z,2.35
2022-12-24T01:05:06.581Z,2.50
2022-12-24T01:07:33.312Z,2.40
2022-12-24T01:10:00.016Z,2.67
2022-12-24T01:12:27.215Z,2.30
2022-12-24T01:14:53.918Z,2.50
2022-12-24T01:17:20.513Z,3.10
2022-12-24T01:19:47.174Z,2.55
2022-12-24T01:22:13.856Z,2.15
2022-12-24T01:24:42.152Z,2.20
2022-12-24T01:27:09.099Z,2.67
2022-12-24T01:29:35.851Z,3.10
2022-12-24T01:32:02.661Z,1.83
2022-12-24T01:34:29.321Z,2.80
2022-12-24T01:36:55.962Z,2.35
2022-12-24T01:39:22.568Z,2.35
2022-12-24T01:42:07.929Z,2.75
2022-12-24T01:44:40.035Z,2.67
2022-12-24T01:47:21.426Z,2.70
2022-12-24T01:49:59.919Z,2.15
2022-12-24T01:52:35.684Z,4.10
2022-12-24T01:55:10.663Z,2.17
2022-12-24T01:57:45.903Z,2.40
2022-12-24T02:00:15.986Z,2.80
2022-12-24T02:02:46.421Z,2.67
2022-12-24T02:05:40.891Z,2.92
2022-12-24T02:08:08.755Z,2.28
2022-12-24T02:10:35.374Z,1.92
2022-12-24T02:13:04.104Z,2.20
2022-12-24T02:15:46.196Z,2.03
2022-12-24T02:18:41.985Z,2.40
2022-12-24T02:22:07.589Z,2.65
2022-12-24T02:24:54.552Z,3.00
2022-12-24T02:28:06.243Z,2.40
2022-12-24T02:31:09.018Z,2.55
2022-12-24T02:33:58.386Z,2.28
2022-12-24T02:39:12.010Z,2.50
2022-12-24T02:42:04.770Z,2.58
2022-12-24T02:45:05.512Z,2.40
2022-12-24T02:47:34.035Z,2.15
2022-12-24T02:50:02.268Z,2.00
2022-12-24T02:52:34.863Z,2.83
2022-12-24T02:55:24.346Z,2.20
2022-12-24T03:00:26.605Z,2.40
2022-12-24T03:03:14.845Z,3.47
2022-12-24T03:05:50.778Z,3.25
2022-12-24T03:08:42.610Z,2.80
2022-12-24T03:11:12.163Z,2.75
2022-12-24T03:13:39.773Z,2.33
2022-12-24T03:16:09.012Z,3.17
2022-12-24T03:18:40.641Z,2.70
2022-12-24T03:21:14.605Z,2.70
2022-12-24T03:23:41.490Z,2.50
2022-12-24T03:26:11.144Z,2.55
2022-12-24T03:28:40.233Z,2.70
2022-12-24T03:31:08.378Z,2.58
2022-12-24T03:33:35.197Z,3.08
2022-12-24T03:36:02.202Z,2.58
2022-12-24T03:38:28.886Z,2.45
2022-12-24T03:40:55.581Z,2.50
2022-12-24T03:43:22.249Z,2.47
2022-12-24T03:45:48.869Z,2.60
2022-12-24T03:48:15.706Z,2.72
2022-12-24T03:50:42.284Z,2.47
2022-12-24T03:53:08.958Z,2.60
2022-12-24T03:55:35.555Z,2.60
2022-12-24T03:58:02.203Z,2.72
2022-12-24T04:00:28.798Z,2.85
2022-12-24T04:02:55.484Z,3.10
2022-12-24T04:05:22.084Z,3.05
2022-12-24T04:07:48.690Z,2.25
2022-12-24T04:10:16.862Z,2.60
2022-12-24T04:12:43.499Z,3.00
2022-12-24T04:15:11.010Z,2.67
2022-12-24T04:17:37.623Z,2.45
2022-12-24T04:20:04.531Z,3.35
2022-12-24T04:22:31.236Z,2.92
2022-12-24T04:24:57.834Z,2.85
2022-12-24T04:27:30.166Z,3.10
2022-12-24T04:29:57.512Z,1.90
2022-12-24T04:32:26.149Z,2.22
2022-12-24T04:34:52.745Z,3.90
2022-12-24T04:37:19.397Z,2.63
2022-12-24T04:39:45.982Z,2.60
2022-12-24T04:42:12.581Z,2.70
2022-12-24T04:44:39.139Z,3.03
2022-12-24T04:47:05.733Z,3.00
2022-12-24T04:49:32.377Z,3.20
2022-12-24T04:51:59.091Z,2.05
2022-12-24T04:54:25.752Z,2.45
2022-12-24T04:56:52.833Z,2.55
2022-12-24T04:59:19.537Z,2.63
2022-12-24T05:01:46.170Z,3.22
2022-12-24T05:04:12.848Z,2.92
2022-12-24T05:06:39.555Z,2.33
2022-12-24T05:09:06.193Z,3.08
2022-12-24T05:11:32.888Z,2.42
2022-12-24T05:13:59.655Z,2.92
2022-12-24T05:16:26.354Z,3.25
2022-12-24T05:18:53.771Z,2.92
2022-12-24T05:21:22.758Z,2.83
2022-12-24T05:24:08.769Z,2.60
2022-12-24T05:26:40.228Z,3.35
2022-12-24T05:29:07.857Z,2.97
2022-12-24T05:31:36.157Z,3.47
2022-12-24T05:34:03.308Z,3.00
2022-12-24T05:36:30.288Z,3.38
2022-12-24T05:38:57.138Z,3.20
2022-12-24T05:41:24.326Z,3.05
2022-12-24T05:43:51.446Z,3.65
2022-12-24T05:46:20.631Z,2.97
2022-12-24T05:48:48.228Z,3.13
2022-12-24T05:51:19.767Z,2.75
2022-12-24T05:53:47.277Z,2.75
2022-12-24T05:56:20.717Z,3.08
2022-12-24T05:58:47.447Z,3.28
2022-12-24T06:01:14.934Z,3.10
2022-12-24T06:03:41.703Z,3.45
2022-12-24T06:06:14.305Z,3.22
2022-12-24T06:08:41.970Z,3.22
2022-12-24T06:11:11.990Z,3.85
2022-12-24T06:13:39.065Z,3.25
2022-12-24T06:16:07.360Z,2.63
2022-12-24T06:18:35.808Z,5.55
2022-12-24T06:21:03.618Z,3.65
2022-12-24T06:23:31.998Z,2.97
2022-12-24T06:26:03.228Z,2.97
2022-12-24T06:28:32.268Z,3.10
2022-12-24T06:31:03.060Z,3.50
2022-12-24T06:33:31.805Z,3.40
2022-12-24T06:35:58.684Z,2.55
2022-12-24T06:38:26.055Z,3.45
2022-12-24T06:40:52.741Z,4.32
2022-12-24T06:43:19.373Z,4.10
2022-12-24T06:45:47.895Z,3.03
2022-12-24T06:48:15.684Z,3.03
2022-12-24T06:50:42.448Z,3.92
2022-12-24T06:53:10.391Z,2.83
2022-12-24T06:55:37.417Z,3.47
2022-12-24T06:58:05.063Z,3.28
2022-12-24T07:00:31.836Z,4.00
2022-12-24T07:02:58.695Z,3.53
2022-12-24T07:05:25.523Z,3.25
2022-12-24T07:07:52.264Z,2.65
2022-12-24T07:10:19.794Z,3.22
2022-12-24T07:12:46.859Z,3.85
2022-12-24T07:15:14.284Z,2.58
2022-12-24T07:17:41.557Z,3.42
2022-12-24T07:20:12.351Z,3.85
2022-12-24T07:22:39.067Z,3.35
2022-12-24T07:25:06.158Z,3.10
2022-12-24T07:27:32.801Z,2.80
2022-12-24T07:29:59.376Z,3.58
2022-12-24T07:32:26.115Z,3.03
2022-12-24T07:34:52.766Z,3.08
2022-12-24T07:37:19.428Z,3.78
2022-12-24T07:39:46.050Z,3.33
2022-12-24T07:42:12.647Z,3.00
2022-12-24T07:44:39.247Z,2.80
2022-12-24T07:47:07.356Z,2.85
2022-12-24T07:49:35.000Z,6.30
2022-12-24T07:52:01.736Z,2.85
2022-12-24T07:54:28.401Z,2.55
2022-12-24T07:56:55.054Z,2.60
2022-12-24T07:59:22.213Z,2.70
2022-12-24T08:01:49.030Z,3.28
2022-12-24T08:04:15.833Z,3.25
2022-12-24T08:06:42.656Z,3.50
2022-12-24T08:09:09.324Z,2.78
2022-12-24T08:11:35.940Z,2.17
2022-12-24T08:14:02.547Z,3.05
2022-12-24T08:16:29.194Z,3.00
2022-12-24T08:18:55.836Z,2.50
2022-12-24T08:21:22.435Z,2.58
2022-12-24T08:23:49.145Z,2.30
2022-12-24T08:26:17.514Z,2.53
2022-12-24T08:28:44.772Z,2.53
2022-12-24T08:31:11.665Z,2.50
2022-12-24T08:33:38.313Z,2.88
2022-12-24T08:36:05.370Z,2.33
2022-12-24T08:38:31.940Z,2.40
2022-12-24T08:40:58.585Z,1.70
2022-12-24T08:43:28.156Z,2.00
2022-12-24T08:45:54.856Z,2.42
2022-12-24T08:48:21.578Z,2.40
2022-12-24T08:50:48.257Z,2.50
2022-12-24T08:53:14.911Z,2.30
2022-12-24T08:55:42.422Z,2.05
2022-12-24T08:58:09.239Z,1.92
2022-12-24T09:00:36.146Z,2.22
2022-12-24T09:03:02.930Z,2.78
2022-12-24T09:05:29.628Z,2.38
2022-12-24T09:07:56.329Z,3.75
2022-12-24T09:10:23.555Z,1.88
2022-12-24T09:12:51.326Z,2.50
2022-12-24T09:15:19.035Z,1.60
2022-12-24T09:17:45.733Z,1.65
2022-12-24T09:20:12.458Z,1.90
2022-12-24T09:22:40.281Z,2.40
2022-12-24T09:25:08.828Z,2.15
2022-12-24T09:27:35.628Z,1.90
2022-12-24T09:30:02.549Z,2.10
2022-12-24T09:32:29.177Z,2.63
2022-12-24T09:34:55.963Z,2.08
2022-12-24T09:37:22.839Z,2.03
2022-12-24T09:39:49.444Z,1.70
2022-12-24T09:42:34.051Z,1.77
2022-12-24T09:45:22.939Z,1.63
2022-12-24T09:47:57.837Z,1.50
2022-12-24T09:50:29.859Z,1.60
2022-12-24T09:53:01.692Z,1.70
2022-12-24T09:55:28.216Z,1.38
2022-12-24T09:57:57.401Z,1.45
2022-12-24T10:00:29.004Z,2.03
2022-12-24T10:02:56.222Z,2.08
2022-12-24T10:05:28.941Z,1.60
2022-12-24T10:08:42.275Z,1.52
2022-12-24T10:11:44.269Z,1.95
2022-12-24T10:14:43.481Z,2.08
2022-12-24T10:17:36.702Z,1.88
2022-12-24T10:20:21.668Z,1.55
2022-12-24T10:23:15.856Z,1.98
2022-12-24T10:25:48.339Z,1.80
2022-12-24T10:28:19.020Z,2.67
2022-12-24T10:30:50.286Z,2.25
2022-12-24T10:33:29.347Z,2.13
2022-12-24T10:35:57.144Z,1.90
2022-12-24T10:38:23.861Z,2.47
2022-12-24T10:40:52.838Z,2.25
2022-12-24T10:43:24.978Z,2.40
2022-12-24T10:45:56.526Z,3.60
2022-12-24T10:48:28.817Z,2.22
2022-12-24T10:51:06.008Z,2.55
2022-12-24T10:53:41.988Z,2.72
2022-12-24T10:56:13.138Z,1.67
2022-12-24T10:58:53.080Z,2.38
2022-12-24T11:01:40.321Z,2.40
2022-12-24T11:04:07.463Z,2.35
2022-12-24T11:06:54.947Z,2.10
2022-12-24T11:09:47.182Z,2.13
2022-12-24T11:12:21.928Z,2.72
2022-12-24T11:14:53.780Z,2.90
2022-12-24T11:17:23.207Z,2.60
2022-12-24T11:22:32.184Z,2.42
2022-12-24T11:25:18.630Z,2.67
2022-12-24T11:27:50.616Z,2.83
2022-12-24T11:30:17.385Z,3.17
2022-12-24T11:32:47.370Z,3.80
2022-12-24T11:35:23.009Z,3.17
2022-12-24T11:38:01.541Z,2.70
2022-12-24T11:40:34.244Z,3.73
2022-12-24T11:43:01.779Z,2.67
2022-12-24T11:45:33.810Z,3.58
2022-12-24T11:48:01.256Z,3.20
2022-12-24T11:50:33.264Z,3.90
2022-12-24T11:53:02.805Z,3.20
2022-12-24T11:56:01.981Z,2.60
2022-12-24T11:58:39.745Z,3.92
2022-12-24T12:01:24.408Z,3.22
2022-12-24T12:03:58.079Z,3.83
2022-12-24T12:06:38.903Z,2.60
2022-12-24T12:09:20.898Z,3.20
2022-12-24T12:11:54.114Z,3.40
2022-12-24T12:14:27.661Z,3.03
2022-12-24T12:17:06.144Z,3.80
2022-12-24T12:19:40.153Z,5.23
2022-12-24T12:22:13.013Z,2.90
2022-12-24T12:24:48.126Z,3.65
2022-12-24T12:27:32.096Z,3.40
2022-12-24T12:30:04.557Z,3.97
2022-12-24T12:32:57.201Z,3.03
2022-12-24T12:35:34.182Z,3.38
2022-12-24T12:38:11.086Z,3.28
2022-12-24T12:41:14.647Z,3.25
2022-12-24T12:43:50.023Z,4.22
2022-12-24T12:46:25.686Z,3.47
2022-12-24T12:49:09.891Z,2.90
2022-12-24T12:51:53.432Z,3.42
2022-12-24T12:54:56.372Z,3.72
2022-12-24T12:57:30.925Z,3.22
2022-12-24T13:00:04.450Z,3.45
2022-12-24T13:02:56.008Z,3.70
2022-12-24T13:05:53.774Z,4.05
2022-12-24T13:08:36.096Z,2.92
2022-12-24T13:11:24.068Z,3.63
2022-12-24T13:14:02.834Z,3.15
2022-12-24T13:17:06.969Z,3.05
2022-12-24T13:19:42.798Z,3.10
2022-12-24T13:22:18.343Z,3.92
2022-12-24T13:24:55.896Z,3.58
2022-12-24T13:27:33.689Z,4.40
2022-12-24T13:30:32.618Z,4.32
2022-12-24T13:32:59.342Z,3.70
2022-12-24T13:35:33.553Z,3.60
2022-12-24T13:38:44.975Z,3.35
2022-12-24T13:41:40.598Z,4.18
2022-12-24T13:44:12.820Z,4.28
2022-12-24T13:47:06.795Z,5.05
2022-12-24T13:49:38.165Z,3.97
2022-12-24T13:52:07.721Z,3.80
2022-12-24T13:54:35.917Z,4.10
2022-12-24T13:57:02.793Z,4.38
2022-12-24T13:59:34.560Z,4.75
2022-12-24T14:02:05.343Z,4.15
2022-12-24T14:04:36.480Z,3.92
2022-12-24T14:07:05.075Z,4.13
2022-12-24T14:09:32.949Z,3.87
2022-12-24T14:11:59.549Z,4.57
2022-12-24T14:14:34.677Z,3.80
2022-12-24T14:17:05.971Z,5.13
2022-12-24T14:19:43.917Z,3.42
2022-12-24T14:22:23.430Z,3.28
2022-12-24T14:27:42.392Z,6.40
2022-12-24T14:30:25.677Z,3.63
2022-12-24T14:32:53.563Z,4.35
2022-12-24T14:35:23.997Z,3.67
2022-12-24T14:37:58.901Z,4.07
2022-12-24T14:40:31.237Z,3.63
2022-12-24T14:43:29.051Z,3.22
2022-12-24T14:46:23.408Z,3.22
2022-12-24T14:49:25.281Z,3.05
2022-12-24T14:52:04.131Z,5.53
2022-12-24T14:54:38.002Z,3.75
2022-12-24T14:57:10.553Z,3.42
2022-12-24T14:59:55.398Z,3.80
2022-12-24T15:02:22.108Z,3.65
2022-12-24T15:05:26.033Z,3.88
2022-12-24T15:07:52.563Z,3.40
2022-12-24T15:10:38.344Z,3.53
2022-12-24T15:13:08.478Z,3.50
2022-12-24T15:15:35.689Z,3.72
2022-12-24T15:18:04.836Z,3.60
2022-12-24T15:20:31.838Z,4.00
2022-12-24T15:22:59.417Z,3.67
2022-12-24T15:25:32.582Z,4.15
2022-12-24T15:27:59.488Z,3.38
2022-12-24T15:30:28.778Z,4.50
2022-12-24T15:32:57.549Z,2.67
2022-12-24T15:35:54.731Z,3.65
2022-12-24T15:38:37.756Z,3.55
2022-12-24T15:41:18.188Z,3.45
2022-12-24T15:43:47.037Z,3.75
2022-12-24T15:46:40.259Z,3.55
2022-12-24T15:49:15.858Z,3.90
2022-12-24T15:51:42.534Z,3.63
2022-12-24T15:54:20.392Z,3.90
2022-12-24T15:56:48.664Z,3.65
2022-12-24T15:59:36.810Z,3.80
2022-12-24T16:02:33.061Z,9.60
2022-12-24T16:05:18.208Z,4.43
2022-12-24T16:08:10.242Z,3.83
2022-12-24T16:10:41.647Z,2.95
2022-12-24T16:13:30.273Z,3.75
2022-12-24T16:16:07.393Z,3.30
2022-12-24T16:18:56.098Z,4.05
2022-12-24T16:21:28.245Z,3.50
2022-12-24T16:23:57.441Z,3.38
2022-12-24T16:26:24.381Z,3.00
2022-12-24T16:28:50.973Z,4.03
2022-12-24T16:31:20.097Z,3.90
2022-12-24T16:33:47.297Z,3.38
2022-12-24T16:36:14.657Z,4.95
2022-12-24T16:38:59.801Z,7.47
2022-12-24T16:41:26.423Z,9.68
2022-12-24T16:43:53.027Z,10.48
2022-12-24T16:46:19.782Z,8.73
2022-12-24T16:48:48.992Z,11.05
2022-12-24T16:51:15.660Z,16.42
2022-12-24T16:53:42.384Z,21.73
2022-12-24T16:56:09.108Z,14.30
2022-12-24T16:58:35.772Z,19.08
2022-12-24T17:01:09.624Z,16.27
2022-12-24T17:03:36.630Z,10.30
2022-12-24T17:06:07.626Z,10.48
2022-12-24T17:08:34.394Z,12.45
2022-12-24T17:11:01.041Z,8.88
2022-12-24T17:13:27.705Z,8.52
2022-12-24T17:15:54.393Z,10.05
2022-12-24T17:18:21.103Z,9.90
2022-12-24T17:21:00.737Z,11.35
2022-12-24T17:23:27.836Z,9.15
2022-12-24T17:25:54.467Z,9.50
2022-12-24T17:28:21.605Z,7.47
2022-12-24T17:30:48.259Z,8.38
2022-12-24T17:33:15.279Z,7.25
2022-12-24T17:35:43.124Z,6.80
2022-12-24T17:38:10.065Z,12.20
2022-12-24T17:40:36.663Z,7.25
2022-12-24T17:43:03.274Z,10.73
2022-12-24T17:45:29.937Z,6.57
2022-12-24T17:47:56.651Z,7.30
2022-12-24T17:50:23.232Z,6.85
2022-12-24T17:52:49.854Z,6.78
2022-12-24T17:55:17.041Z,6.75
2022-12-24T17:57:43.626Z,6.47
2022-12-24T18:00:10.840Z,7.35
2022-12-24T18:02:38.850Z,6.20
2022-12-24T18:05:05.909Z,6.03
2022-12-24T18:07:32.538Z,6.97
2022-12-24T18:09:59.997Z,6.50
2022-12-24T18:12:26.613Z,6.70
2022-12-24T18:14:53.251Z,8.07
2022-12-24T18:17:19.878Z,6.95
2022-12-24T18:19:46.461Z,7.22
2022-12-24T18:22:13.096Z,8.02
2022-12-24T18:24:39.701Z,6.97
2022-12-24T18:27:06.483Z,7.03
2022-12-24T18:29:33.261Z,6.60
2022-12-24T18:31:59.960Z,6.10
2022-12-24T18:34:26.619Z,6.45
2022-12-24T18:36:55.680Z,6.72
2022-12-24T18:39:22.874Z,8.10
2022-12-24T18:41:50.719Z,7.60
2022-12-24T18:44:24.230Z,6.63
2022-12-24T18:46:51.799Z,6.75
2022-12-24T18:49:18.495Z,6.68
2022-12-24T18:51:45.098Z,7.30
2022-12-24T18:54:11.701Z,6.85
2022-12-24T18:56:38.300Z,7.32
2022-12-24T18:59:05.047Z,5.13
2022-12-24T19:01:33.940Z,7.55
2022-12-24T19:04:01.571Z,10.82
2022-12-24T19:06:28.247Z,7.78
2022-12-24T19:08:57.772Z,7.32
2022-12-24T19:11:25.407Z,5.32
2022-12-24T19:13:53.219Z,5.25
2022-12-24T19:16:20.810Z,5.43
2022-12-24T19:18:47.733Z,6.20
2022-12-24T19:21:15.806Z,5.78
2022-12-24T19:23:43.268Z,5.63
2022-12-24T19:26:11.201Z,4.65
2022-12-24T19:28:38.171Z,5.20
2022-12-24T19:31:07.718Z,6.22
2022-12-24T19:33:43.885Z,7.28
2022-12-24T19:36:17.478Z,14.90
2022-12-24T19:38:44.669Z,15.80
2022-12-24T19:41:13.624Z,14.30
2022-12-24T19:43:42.805Z,6.78
2022-12-24T19:46:11.327Z,8.25
2022-12-24T19:48:38.712Z,8.17
2022-12-24T19:51:08.153Z,7.53
2022-12-24T19:56:02.295Z,6.85
2022-12-24T19:58:29.757Z,6.70
2022-12-24T20:00:56.450Z,10.18
2022-12-24T20:03:23.201Z,17.63
2022-12-24T20:05:49.817Z,15.65
2022-12-24T20:08:16.637Z,19.20
2022-12-24T20:10:44.431Z,11.00
2022-12-24T20:13:11.321Z,13.20
2022-12-24T20:15:43.063Z,17.50
2022-12-24T20:18:11.467Z,12.07
2022-12-24T20:20:38.514Z,11.85
2022-12-24T20:23:06.009Z,11.25
2022-12-24T20:25:37.381Z,10.68
2022-12-24T20:28:05.102Z,10.73
2022-12-24T20:30:31.931Z,7.63
2022-12-24T20:32:58.620Z,8.05
2022-12-24T20:35:25.446Z,7.88
2022-12-24T20:37:52.072Z,7.13
2022-12-24T20:40:18.834Z,7.18
2022-12-24T20:42:45.456Z,8.73
2022-12-24T20:45:12.197Z,14.48
2022-12-24T20:47:39.277Z,7.97
2022-12-24T20:50:06.529Z,9.57
2022-12-24T20:52:33.154Z,7.97
2022-12-24T20:54:59.917Z,8.32
2022-12-24T20:57:31.412Z,6.82
2022-12-24T21:00:02.548Z,8.15
2022-12-24T21:02:29.304Z,7.20
2022-12-24T21:05:01.677Z,8.27
2022-12-24T21:07:29.048Z,7.78
2022-12-24T21:09:55.656Z,6.05
2022-12-24T21:12:40.738Z,8.05
2022-12-24T21:15:07.606Z,13.55
2022-12-24T21:17:34.211Z,13.52
2022-12-24T21:20:01.000Z,12.45
2022-12-24T21:22:27.586Z,12.02
2022-12-24T21:24:54.185Z,11.07
2022-12-24T21:27:20.788Z,10.98
2022-12-24T21:29:47.628Z,10.43
2022-12-24T21:32:14.283Z,9.93
2022-12-24T21:34:41.008Z,9.93
2022-12-24T21:37:07.714Z,8.77
2022-12-24T21:39:34.401Z,8.55
2022-12-24T21:42:01.082Z,6.82
2022-12-24T21:44:27.741Z,8.70
2022-12-24T21:46:54.355Z,7.38
2022-12-24T21:49:39.673Z,7.13
2022-12-24T21:52:06.352Z,6.22
2022-12-24T21:54:33.291Z,6.50
2022-12-24T21:57:21.583Z,7.10
2022-12-24T21:59:57.368Z,8.35
2022-12-24T22:02:28.589Z,7.22
2022-12-24T22:04:55.607Z,6.53
2022-12-24T22:07:46.436Z,7.38
2022-12-24T22:10:33.247Z,6.75
2022-12-24T22:13:00.812Z,8.55
2022-12-24T22:15:27.529Z,8.52
2022-12-24T22:17:54.278Z,8.10
2022-12-24T22:20:20.971Z,8.10
2022-12-24T22:22:48.878Z,7.05
2022-12-24T22:25:16.246Z,7.55
2022-12-24T22:27:43.093Z,8.27
2022-12-24T22:30:10.440Z,7.53
2022-12-24T22:32:37.151Z,7.20
2022-12-24T22:35:04.079Z,6.97
2022-12-24T22:37:30.690Z,6.85
2022-12-24T22:39:57.346Z,6.45
2022-12-24T22:42:23.973Z,7.10
2022-12-24T22:44:50.597Z,6.38
2022-12-24T22:47:17.201Z,7.38
2022-12-24T22:49:43.826Z,8.20
2022-12-24T22:52:10.574Z,6.20
2022-12-24T22:54:37.189Z,6.05
2022-12-24T22:57:03.846Z,7.05
2022-12-24T22:59:30.511Z,8.35
2022-12-24T23:01:57.724Z,9.48
2022-12-24T23:04:25.534Z,9.07
2022-12-24T23:06:52.193Z,15.38
2022-12-24T23:09:18.812Z,11.07
2022-12-24T23:11:45.539Z,8.45
2022-12-24T23:14:36.633Z,9.60
2022-12-24T23:17:03.507Z,7.75
2022-12-24T23:19:31.952Z,8.85
2022-12-24T23:21:58.605Z,7.57
2022-12-24T23:24:25.639Z,8.68
2022-12-24T23:26:52.463Z,9.38
2022-12-24T23:29:19.137Z,8.98
2022-12-24T23:31:45.880Z,8.73
2022-12-24T23:34:12.572Z,9.93
2022-12-24T23:36:39.354Z,8.48
2022-12-24T23:39:05.950Z,9.98
2022-12-24T23:41:32.848Z,8.15
2022-12-24T23:43:59.457Z,10.25
2022-12-24T23:46:26.162Z,8.73
2022-12-24T23:48:54.889Z,7.60
2022-12-24T23:51:24.422Z,8.07
2022-12-24T23:56:19.125Z,8.25
2022-12-24T23:58:46.366Z,9.15
